createdAt,value
2022-08-30T00:02:30.338Z,15.91
2022-08-30T00:07:34.637Z,15.90
2022-08-30T00:12:37.435Z,15.95
2022-08-30T00:17:40.304Z,16.03
2022-08-30T00:22:44.676Z,16.04
2022-08-30T00:27:47.597Z,15.96
2022-08-30T00:32:50.454Z,15.89
2022-08-30T00:37:54.655Z,15.79
2022-08-30T00:42:59.936Z,15.68
2022-08-30T00:48:07.779Z,15.50
2022-08-30T00:53:15.858Z,15.38
2022-08-30T00:58:23.474Z,15.31
2022-08-30T01:03:26.066Z,15.18
2022-08-30T01:08:30.215Z,15.07
2022-08-30T01:13:35.209Z,14.98
2022-08-30T01:18:38.576Z,14.88
2022-08-30T01:23:47.421Z,14.83
2022-08-30T01:28:55.779Z,14.73
2022-08-30T01:33:58.496Z,14.55
2022-08-30T01:39:03.676Z,14.53
2022-08-30T01:44:08.453Z,14.59
2022-08-30T01:49:13.655Z,14.63
2022-08-30T01:54:17.799Z,14.63
2022-08-30T01:59:20.547Z,14.69
2022-08-30T02:04:23.323Z,14.77
2022-08-30T02:09:27.839Z,14.88
2022-08-30T02:14:30.571Z,14.89
2022-08-30T02:19:33.290Z,14.88
2022-08-30T02:24:37.495Z,14.93
2022-08-30T02:29:40.232Z,14.92
2022-08-30T02:34:43.066Z,14.87
2022-08-30T02:39:47.186Z,14.96
2022-08-30T02:44:49.881Z,15.02
2022-08-30T02:49:52.743Z,15.00
2022-08-30T02:54:56.794Z,15.02
2022-08-30T02:59:59.631Z,15.08
2022-08-30T03:05:04.216Z,15.01
2022-08-30T03:10:09.102Z,14.88
2022-08-30T03:15:13.588Z,14.69
2022-08-30T03:20:16.417Z,14.65
2022-08-30T03:25:21.702Z,14.57
2022-08-30T03:30:24.532Z,14.45
2022-08-30T03:35:27.427Z,14.34
2022-08-30T03:40:37.579Z,14.27
2022-08-30T03:45:41.163Z,14.25
2022-08-30T03:50:43.979Z,14.27
2022-08-30T03:55:48.053Z,14.17
2022-08-30T04:00:52.090Z,14.08
2022-08-30T04:05:55.413Z,13.90
2022-08-30T04:11:00.162Z,13.85
2022-08-30T04:16:03.199Z,13.74
2022-08-30T04:21:06.555Z,13.64
2022-08-30T04:26:11.800Z,13.53
2022-08-30T04:31:17.121Z,13.50
2022-08-30T04:36:20.059Z,13.47
2022-08-30T04:41:24.440Z,13.44
2022-08-30T04:46:27.245Z,13.50
2022-08-30T04:51:30.131Z,13.48
2022-08-30T04:56:34.757Z,13.44
2022-08-30T05:01:45.631Z,13.47
2022-08-30T05:06:49.152Z,13.50
2022-08-30T05:11:53.417Z,13.53
2022-08-30T05:16:56.238Z,13.57
2022-08-30T05:21:59.038Z,13.61
2022-08-30T05:27:03.250Z,13.69
2022-08-30T05:32:06.250Z,13.77
2022-08-30T05:37:08.959Z,13.87
2022-08-30T05:42:13.282Z,14.01
2022-08-30T05:47:20.185Z,14.23
2022-08-30T05:52:22.996Z,14.51
2022-08-30T05:57:27.256Z,14.83
2022-08-30T06:02:30.018Z,15.18
2022-08-30T06:07:32.809Z,15.43
2022-08-30T06:12:36.947Z,15.70
2022-08-30T06:17:40.040Z,16.06
2022-08-30T06:22:42.865Z,16.37
2022-08-30T06:27:47.331Z,16.67
2022-08-30T06:32:50.191Z,16.95
2022-08-30T06:37:53.014Z,17.13
2022-08-30T06:42:57.397Z,17.32
2022-08-30T06:48:00.401Z,17.46
2022-08-30T06:53:06.311Z,17.88
2022-08-30T06:58:10.453Z,18.35
2022-08-30T07:03:13.386Z,18.56
2022-08-30T07:08:16.392Z,19.04
2022-08-30T07:13:21.751Z,19.32
2022-08-30T07:18:42.187Z,19.19
2022-08-30T07:23:48.313Z,19.61
2022-08-30T07:28:56.155Z,20.41
2022-08-30T07:33:59.179Z,20.68
2022-08-30T07:39:02.348Z,20.58
2022-08-30T07:44:08.039Z,20.86
2022-08-30T07:49:11.792Z,21.11
2022-08-30T07:54:14.583Z,20.95
2022-08-30T07:59:23.250Z,20.73
2022-08-30T08:04:26.010Z,21.49
2022-08-30T08:09:28.966Z,21.85
2022-08-30T08:14:33.554Z,21.73
2022-08-30T08:19:36.996Z,22.26
2022-08-30T08:24:39.730Z,22.77
2022-08-30T08:29:43.945Z,22.45
2022-08-30T08:34:46.698Z,22.82
2022-08-30T08:39:52.446Z,23.34
2022-08-30T08:45:03.634Z,23.89
2022-08-30T08:50:17.407Z,23.29
2022-08-30T08:55:24.670Z,23.34
2022-08-30T09:00:29.987Z,23.78
2022-08-30T09:05:38.682Z,24.04
2022-08-30T09:10:51.476Z,24.82
2022-08-30T09:15:59.368Z,24.72
2022-08-30T09:21:08.161Z,24.80
2022-08-30T09:26:10.930Z,25.62
2022-08-30T09:31:22.010Z,25.92
2022-08-30T09:36:28.437Z,25.25
2022-08-30T09:41:41.683Z,25.57
2022-08-30T09:46:49.631Z,25.73
2022-08-30T09:52:00.103Z,26.21
2022-08-30T09:57:13.225Z,26.08
2022-08-30T10:02:37.437Z,26.37
2022-08-30T10:07:49.559Z,26.52
2022-08-30T10:13:06.367Z,26.61
2022-08-30T10:18:17.738Z,26.62
2022-08-30T10:23:23.924Z,26.77
2022-08-30T10:28:32.328Z,26.98
2022-08-30T10:33:41.421Z,27.09
2022-08-30T10:38:50.038Z,27.30
2022-08-30T10:43:58.864Z,27.54
2022-08-30T10:49:06.083Z,27.66
2022-08-30T10:54:15.639Z,27.15
2022-08-30T10:59:22.701Z,27.88
2022-08-30T11:05:00.631Z,28.65
2022-08-30T11:10:33.147Z,29.05
2022-08-30T11:15:52.459Z,29.58
2022-08-30T11:21:20.027Z,29.26
2022-08-30T11:26:57.414Z,29.68
2022-08-30T11:32:19.611Z,29.97
2022-08-30T11:37:38.470Z,29.47
2022-08-30T11:42:44.870Z,29.97
2022-08-30T11:47:50.835Z,30.49
2022-08-30T11:53:05.518Z,30.87
2022-08-30T11:58:32.771Z,31.58
2022-08-30T12:03:36.142Z,31.71
2022-08-30T12:08:55.332Z,32.67
2022-08-30T12:14:08.199Z,32.45
2022-08-30T12:19:20.075Z,33.38
2022-08-30T12:24:29.375Z,35.29
2022-08-30T12:29:33.361Z,34.85
2022-08-30T12:34:38.178Z,35.32
2022-08-30T12:39:44.862Z,35.43
2022-08-30T12:44:49.027Z,38.21
2022-08-30T12:49:53.138Z,36.54
2022-08-30T12:55:16.402Z,36.48
2022-08-30T13:00:26.678Z,38.24
2022-08-30T13:05:41.710Z,36.39
2022-08-30T13:10:59.297Z,38.97
2022-08-30T13:16:22.507Z,38.26
2022-08-30T13:21:29.221Z,37.41
2022-08-30T13:26:35.999Z,38.71
2022-08-30T13:31:39.061Z,36.84
2022-08-30T13:36:47.609Z,37.18
2022-08-30T13:41:51.902Z,35.88
2022-08-30T13:47:32.320Z,34.84
2022-08-30T13:52:24.458Z,34.06
2022-08-30T14:02:57.269Z,32.08
2022-08-30T14:08:00.660Z,31.56
2022-08-30T14:13:09.157Z,31.34
2022-08-30T14:18:17.142Z,31.52
2022-08-30T14:23:20.629Z,30.47
2022-08-30T14:28:25.937Z,30.76
2022-08-30T14:33:29.479Z,29.51
2022-08-30T14:38:32.294Z,29.11
2022-08-30T14:43:37.732Z,29.45
2022-08-30T14:48:41.667Z,30.40
2022-08-30T14:53:46.749Z,30.00
2022-08-30T14:58:53.870Z,30.14
2022-08-30T15:03:57.354Z,30.69
2022-08-30T15:09:01.182Z,31.58
2022-08-30T15:14:05.937Z,31.79
2022-08-30T15:19:11.871Z,31.67
2022-08-30T15:24:17.245Z,32.02
2022-08-30T15:29:23.209Z,32.42
2022-08-30T15:34:28.190Z,34.23
2022-08-30T15:39:32.142Z,39.05
2022-08-30T15:44:36.463Z,42.22
2022-08-30T15:49:39.287Z,42.42
2022-08-30T15:54:45.458Z,37.37
2022-08-30T15:59:54.443Z,37.80
2022-08-30T16:04:57.300Z,38.41
2022-08-30T16:10:00.445Z,36.66
2022-08-30T16:15:05.083Z,33.83
2022-08-30T16:20:09.055Z,33.58
2022-08-30T16:25:15.401Z,32.68
2022-08-30T16:30:23.982Z,32.75
2022-08-30T16:35:26.896Z,32.78
2022-08-30T16:40:30.131Z,32.13
2022-08-30T16:45:34.713Z,32.00
2022-08-30T16:50:38.246Z,30.46
2022-08-30T16:55:42.426Z,29.58
2022-08-30T17:00:48.972Z,29.08
2022-08-30T17:05:51.874Z,28.90
2022-08-30T17:11:00.161Z,28.50
2022-08-30T17:16:04.964Z,28.19
2022-08-30T17:21:08.618Z,27.58
2022-08-30T17:26:11.453Z,27.21
2022-08-30T17:31:16.448Z,27.05
2022-08-30T17:36:19.631Z,26.77
2022-08-30T17:41:23.795Z,26.43
2022-08-30T17:46:28.232Z,26.08
2022-08-30T17:51:31.829Z,25.87
2022-08-30T17:56:35.666Z,25.60
2022-08-30T18:01:41.616Z,25.44
2022-08-30T18:06:45.517Z,25.02
2022-08-30T18:11:49.206Z,24.78
2022-08-30T18:16:54.604Z,24.52
2022-08-30T18:21:58.149Z,24.33
2022-08-30T18:27:02.333Z,24.12
2022-08-30T18:32:09.050Z,24.00
2022-08-30T18:37:12.689Z,23.87
2022-08-30T18:42:15.599Z,23.76
2022-08-30T18:47:23.017Z,23.64
2022-08-30T18:52:28.059Z,23.49
2022-08-30T19:02:55.067Z,23.30
2022-08-30T19:07:58.477Z,23.20
2022-08-30T19:13:02.873Z,23.09
2022-08-30T19:18:17.343Z,22.99
2022-08-30T19:28:44.117Z,22.86
2022-08-30T19:33:48.381Z,22.77
2022-08-30T19:38:51.267Z,22.67
2022-08-30T19:43:54.131Z,22.63
2022-08-30T19:49:00.882Z,22.50
2022-08-30T19:54:04.232Z,22.43
2022-08-30T19:59:07.364Z,22.37
2022-08-30T20:04:12.603Z,22.32
2022-08-30T20:09:16.447Z,22.22
2022-08-30T20:14:19.615Z,22.14
2022-08-30T20:19:27.695Z,22.10
2022-08-30T20:24:29.807Z,23.44
2022-08-30T20:24:32.042Z,22.07
2022-08-30T20:29:35.360Z,22.00
2022-08-30T20:34:40.596Z,21.94
2022-08-30T20:39:43.392Z,21.89
2022-08-30T20:44:47.614Z,21.82
2022-08-30T20:49:52.034Z,21.81
2022-08-30T20:54:54.905Z,21.75
2022-08-30T20:59:59.940Z,21.73
2022-08-30T21:05:05.865Z,21.70
2022-08-30T21:10:09.613Z,21.65
2022-08-30T21:15:36.465Z,21.58
2022-08-30T21:20:37.031Z,21.56
2022-08-30T21:25:40.759Z,21.52
2022-08-30T21:30:43.821Z,21.48
2022-08-30T21:36:05.492Z,21.44
2022-08-30T21:41:08.292Z,21.45
2022-08-30T21:46:11.626Z,21.35
2022-08-30T21:51:16.036Z,21.33
2022-08-30T21:56:22.024Z,21.27
2022-08-30T22:01:27.649Z,21.23
2022-08-30T22:06:33.854Z,21.12
2022-08-30T22:11:37.917Z,21.13
2022-08-30T22:16:41.519Z,21.05
2022-08-30T22:21:47.928Z,21.01
2022-08-30T22:26:50.642Z,20.99
2022-08-30T22:31:54.551Z,20.93
2022-08-30T22:36:59.462Z,20.89
2022-08-30T22:42:02.198Z,20.87
2022-08-30T22:47:05.169Z,20.80
2022-08-30T22:52:09.308Z,20.78
2022-08-30T22:57:14.792Z,20.77
2022-08-30T23:02:17.626Z,20.73
2022-08-30T23:07:21.791Z,20.70
2022-08-30T23:12:25.211Z,20.64
2022-08-30T23:17:27.910Z,20.58
2022-08-30T23:22:35.899Z,20.55
2022-08-30T23:27:56.584Z,20.58
2022-08-30T23:33:17.085Z,20.52
2022-08-30T23:38:38.821Z,20.51
2022-08-30T23:43:58.887Z,20.46
2022-08-30T23:49:19.565Z,20.40
2022-08-30T23:54:41.521Z,20.40
